createdAt,value
2018-06-28T00:03:04.105Z,100269.08
2018-06-28T00:09:10.389Z,100264.52
2018-06-28T00:15:16.127Z,100264.17
2018-06-28T00:21:22.404Z,100265.52
2018-06-28T00:27:28.330Z,100262.40
2018-06-28T00:33:34.203Z,100267.61
2018-06-28T00:39:40.124Z,100265.08
2018-06-28T00:45:45.775Z,100268.34
2018-06-28T00:51:52.604Z,100266.84
2018-06-28T00:57:58.552Z,100260.63
2018-06-28T01:04:04.387Z,100260.80
2018-06-28T01:10:10.136Z,100250.14
2018-06-28T01:16:16.103Z,100250.91
2018-06-28T01:22:21.878Z,100248.75
2018-06-28T01:28:27.726Z,100261.95
2018-06-28T01:34:33.829Z,100251.61
2018-06-28T01:40:39.542Z,100248.73
2018-06-28T01:46:45.613Z,100245.77
2018-06-28T01:52:51.901Z,100248.44
2018-06-28T01:58:57.566Z,100249.01
2018-06-28T02:05:03.985Z,100242.52
2018-06-28T02:11:09.933Z,100249.98
2018-06-28T02:17:15.972Z,100247.32
2018-06-28T02:23:22.053Z,100243.27
2018-06-28T02:29:28.282Z,100247.86
2018-06-28T02:35:34.022Z,100240.98
2018-06-28T02:41:39.695Z,100239.45
2018-06-28T02:47:45.611Z,100247.66
2018-06-28T02:53:52.359Z,100245.14
2018-06-28T02:59:58.085Z,100244.50
2018-06-28T03:06:04.114Z,100242.64
2018-06-28T03:12:09.877Z,100241.81
2018-06-28T03:18:15.757Z,100240.09
2018-06-28T03:24:22.282Z,100244.13
2018-06-28T03:30:28.339Z,100240.27
2018-06-28T03:36:34.079Z,100239.84
2018-06-28T03:42:40.021Z,100236.67
2018-06-28T03:48:45.970Z,100236.95
2018-06-28T03:54:52.562Z,100240.89
2018-06-28T04:00:58.324Z,100247.36
2018-06-28T04:07:04.409Z,100246.83
2018-06-28T04:13:10.359Z,100257.14
2018-06-28T04:19:16.068Z,100260.50
2018-06-28T04:25:23.971Z,100268.47
2018-06-28T04:31:29.883Z,100266.42
2018-06-28T04:37:35.509Z,100275.20
2018-06-28T04:43:41.428Z,100259.23
2018-06-28T04:49:47.287Z,100256.28
2018-06-28T04:55:53.954Z,100245.13
2018-06-28T05:01:59.723Z,100241.92
2018-06-28T05:08:05.435Z,100239.52
2018-06-28T05:14:11.292Z,100235.67
2018-06-28T05:20:17.121Z,100234.88
2018-06-28T05:26:23.284Z,100240.96
2018-06-28T05:32:29.110Z,100237.25
2018-06-28T05:38:34.784Z,100231.11
2018-06-28T05:44:40.222Z,100230.91
2018-06-28T05:50:45.789Z,100230.50
2018-06-28T05:56:52.071Z,100236.96
2018-06-28T06:02:57.923Z,100233.92
2018-06-28T06:09:04.194Z,100222.36
2018-06-28T06:15:09.908Z,100218.09
2018-06-28T06:21:15.632Z,100231.39
2018-06-28T06:27:22.755Z,100226.98
2018-06-28T06:33:29.181Z,100217.07
2018-06-28T06:39:34.854Z,100219.27
2018-06-28T06:45:40.837Z,100214.06
2018-06-28T06:51:47.170Z,100202.66
2018-06-28T06:57:53.392Z,100186.67
2018-06-28T07:03:59.216Z,100186.56
2018-06-28T07:10:05.037Z,100189.11
2018-06-28T07:16:10.625Z,100180.58
2018-06-28T07:22:16.309Z,100176.64
2018-06-28T07:28:23.167Z,100165.83
2018-06-28T07:34:28.836Z,100162.19
2018-06-28T07:40:34.913Z,100156.48
2018-06-28T07:46:40.548Z,100160.66
2018-06-28T07:52:46.353Z,100157.55
2018-06-28T07:58:52.425Z,100158.70
2018-06-28T08:04:58.231Z,100152.91
2018-06-28T08:11:03.898Z,100145.80
2018-06-28T08:17:10.063Z,100139.25
2018-06-28T08:23:15.831Z,100145.55
2018-06-28T08:29:21.592Z,100147.20
2018-06-28T08:35:28.032Z,100142.01
2018-06-28T08:41:33.763Z,100141.69
2018-06-28T08:47:39.515Z,100139.19
2018-06-28T08:53:45.512Z,100140.95
2018-06-28T08:59:51.304Z,100136.58
2018-06-28T09:05:57.087Z,100142.86
2018-06-28T09:12:02.861Z,100133.94
2018-06-28T09:18:09.063Z,100134.51
2018-06-28T09:24:14.724Z,100128.73
2018-06-28T09:30:21.460Z,100125.70
2018-06-28T09:36:27.662Z,100118.87
2018-06-28T09:42:33.317Z,100118.36
2018-06-28T09:48:39.448Z,100103.77
2018-06-28T09:54:45.144Z,100096.73
2018-06-28T10:00:51.413Z,100098.85
2018-06-28T10:06:57.406Z,100095.11
2018-06-28T10:13:03.263Z,100090.21
2018-06-28T10:19:09.319Z,100085.44
2018-06-28T10:25:15.314Z,100082.25
2018-06-28T10:31:22.241Z,100081.55
2018-06-28T10:37:28.547Z,100068.29
2018-06-28T10:43:34.796Z,100056.77
2018-06-28T10:49:40.482Z,100049.72
2018-06-28T10:55:46.390Z,100051.67
2018-06-28T11:01:53.598Z,100053.25
2018-06-28T11:07:59.498Z,100038.41
2018-06-28T11:14:05.476Z,100024.58
2018-06-28T11:20:11.253Z,100013.85
2018-06-28T11:26:17.084Z,100024.70
2018-06-28T11:32:23.680Z,100003.09
2018-06-28T11:38:29.369Z,99993.02
2018-06-28T11:44:35.063Z,99982.52
2018-06-28T11:50:40.854Z,99978.50
2018-06-28T11:56:46.733Z,99964.29
2018-06-28T12:02:52.523Z,99948.64
2018-06-28T12:08:58.287Z,99936.79
2018-06-28T12:15:04.222Z,99935.20
2018-06-28T12:21:10.055Z,99939.27
2018-06-28T12:27:15.820Z,99928.75
2018-06-28T12:33:22.602Z,99927.35
2018-06-28T12:39:28.509Z,99914.52
2018-06-28T12:45:34.265Z,99911.86
2018-06-28T12:53:03.985Z,99904.11
2018-06-28T12:59:12.163Z,99885.30
2018-06-28T13:05:18.293Z,99897.00
2018-06-28T13:11:26.011Z,99885.63
2018-06-28T13:17:31.822Z,99876.20
2018-06-28T13:23:37.906Z,99871.05
2018-06-28T13:29:43.599Z,99865.17
2018-06-28T13:35:49.803Z,99856.94
2018-06-28T13:41:56.120Z,99867.73
2018-06-28T13:48:01.789Z,99852.73
2018-06-28T13:54:08.091Z,99851.64
2018-06-28T14:00:13.777Z,99839.75
2018-06-28T14:06:19.958Z,99822.05
2018-06-28T14:12:26.333Z,99821.47
2018-06-28T14:18:31.966Z,99802.66
2018-06-28T14:24:37.752Z,99796.95
2018-06-28T14:30:43.481Z,99797.41
2018-06-28T14:36:49.173Z,99795.83
2018-06-28T14:42:54.857Z,99801.39
2018-06-28T14:49:00.582Z,99794.54
2018-06-28T14:55:07.012Z,99786.15
2018-06-28T15:01:12.954Z,99789.97
2018-06-28T15:07:19.093Z,99793.00
2018-06-28T15:13:24.721Z,99780.45
2018-06-28T15:19:30.372Z,99773.39
2018-06-28T15:25:36.260Z,99764.63
2018-06-28T15:31:41.928Z,99756.38
2018-06-28T15:37:48.086Z,99758.94
2018-06-28T15:43:53.997Z,99764.95
2018-06-28T15:49:59.738Z,99755.27
2018-06-28T15:56:06.439Z,99745.66
2018-06-28T16:02:12.127Z,99740.52
2018-06-28T16:08:17.834Z,99744.97
2018-06-28T16:14:24.109Z,99724.27
2018-06-28T16:20:29.853Z,99725.11
2018-06-28T16:26:36.258Z,99729.05
2018-06-28T16:32:42.181Z,99726.42
2018-06-28T16:38:48.200Z,99726.61
2018-06-28T16:44:55.307Z,99718.93
2018-06-28T16:51:01.076Z,99729.04
2018-06-28T16:57:06.984Z,99717.09
2018-06-28T17:03:15.939Z,99716.59
2018-06-28T17:09:22.303Z,99710.55
2018-06-28T17:15:28.027Z,99705.83
2018-06-28T17:21:33.849Z,99709.45
2018-06-28T17:27:39.717Z,99690.94
2018-06-28T17:33:45.773Z,99699.95
2018-06-28T17:39:51.989Z,99700.97
2018-06-28T17:45:57.950Z,99699.53
2018-06-28T17:52:03.897Z,99692.67
2018-06-28T17:58:09.560Z,99693.12
2018-06-28T18:04:15.254Z,99694.36
2018-06-28T18:10:21.091Z,99702.86
2018-06-28T18:16:26.790Z,99699.62
2018-06-28T18:22:32.450Z,99700.51
2018-06-28T18:28:38.337Z,99694.70
2018-06-28T18:34:43.971Z,99700.31
2018-06-28T18:40:49.682Z,99696.87
2018-06-28T18:46:55.685Z,99696.70
2018-06-28T18:53:01.493Z,99690.60
2018-06-28T18:59:07.176Z,99697.92
2018-06-28T19:05:12.918Z,99703.70
2018-06-28T19:11:18.736Z,99712.58
2018-06-28T19:17:25.365Z,99720.08
2018-06-28T19:23:36.081Z,99720.93
2018-06-28T19:29:47.418Z,99732.91
2018-06-28T19:35:54.265Z,99731.76
2018-06-28T19:42:04.968Z,99727.03
2018-06-28T19:48:10.646Z,99741.14
2018-06-28T19:54:16.412Z,99750.62
2018-06-28T20:00:27.821Z,99758.09
2018-06-28T20:06:33.555Z,99762.47
2018-06-28T20:12:44.757Z,99762.19
2018-06-28T20:18:56.217Z,99759.16
2018-06-28T20:25:02.105Z,99752.33
2018-06-28T20:31:13.176Z,99750.29
2018-06-28T20:37:19.445Z,99753.83
2018-06-28T20:43:26.475Z,99757.08
2018-06-28T20:49:32.348Z,99764.20
2018-06-28T20:55:38.260Z,99761.95
2018-06-28T21:01:43.954Z,99762.73
2018-06-28T21:07:49.811Z,99774.84
2018-06-28T21:13:55.826Z,99770.44
2018-06-28T21:20:01.623Z,99775.63
2018-06-28T21:26:07.413Z,99772.50
2018-06-28T21:32:13.208Z,99776.05
2018-06-28T21:38:18.913Z,99776.98
2018-06-28T21:44:26.135Z,99776.41
2018-06-28T21:50:31.952Z,99775.19
2018-06-28T21:56:37.668Z,99788.66
2018-06-28T22:02:43.475Z,99789.21
2018-06-28T22:08:49.530Z,99789.29
2018-06-28T22:14:55.515Z,99784.94
2018-06-28T22:21:01.168Z,99792.45
2018-06-28T22:27:06.575Z,99797.42
2018-06-28T22:33:12.327Z,99802.97
2018-06-28T22:39:18.181Z,99799.03
2018-06-28T22:45:24.846Z,99797.45
2018-06-28T22:51:30.540Z,99800.22
2018-06-28T22:57:36.257Z,99806.85
2018-06-28T23:03:42.038Z,99801.11
2018-06-28T23:09:47.833Z,99802.32
2018-06-28T23:15:54.051Z,99803.95
2018-06-28T23:21:59.725Z,99797.87
2018-06-28T23:28:05.491Z,99804.05
2018-06-28T23:34:11.390Z,99797.95
2018-06-28T23:40:17.150Z,99795.55
2018-06-28T23:46:23.691Z,99790.58
2018-06-28T23:52:29.434Z,99789.07
2018-06-28T23:58:35.476Z,99779.26
